Time;durP1;ratioP1;P1;durP2;ratioP2;P2;SDS_P1;SDS_P2;PMS_P1;PMS_P2;Temp;Humidity;BMP_temperature;BMP_pressure;BME280_temperature;BME280_humidity;BME280_pressure;Samples;Min_cycle;Max_cycle;Signal;HPM_P1;HPM_P2
2021/10/29 00:02:22;;;;;;;82.27;51.40;;;;;;;7.53;84.34;101343.03;1750408;81;26013;-78
2021/10/29 00:04:49;;;;;;;95.40;54.77;;;;;;;7.51;84.39;101335.20;1695091;81;25366;-78
2021/10/29 00:07:16;;;;;;;84.30;51.80;;;;;;;7.51;84.39;101333.02;1696460;83;25942;-78
2021/10/29 00:09:43;;;;;;;87.40;52.27;;;;;;;7.49;84.39;101328.33;1693062;81;26165;-78
2021/10/29 00:12:12;;;;;;;88.50;50.52;;;;;;;7.47;84.30;101334.31;1747751;80;28324;-78
2021/10/29 00:14:41;;;;;;;82.80;51.53;;;;;;;7.45;84.42;101329.13;1696864;81;25957;-78
2021/10/29 00:17:09;;;;;;;91.90;54.08;;;;;;;7.46;84.60;101337.46;1726957;81;25864;-78
2021/10/29 00:19:36;;;;;;;90.42;53.20;;;;;;;7.46;84.73;101335.31;1671403;81;26404;-78
2021/10/29 00:22:04;;;;;;;89.50;52.10;;;;;;;7.46;84.81;101336.13;1745580;81;25313;-78
2021/10/29 00:24:31;;;;;;;93.12;54.13;;;;;;;7.44;84.70;101335.95;1698890;84;27489;-78
2021/10/29 00:26:59;;;;;;;89.92;50.63;;;;;;;7.41;84.95;101337.58;1688047;82;26742;-79
2021/10/29 00:29:26;;;;;;;88.22;52.73;;;;;;;7.37;85.07;101326.86;1716597;81;25873;-78
2021/10/29 00:31:53;;;;;;;84.75;51.77;;;;;;;7.34;85.35;101329.33;1748332;81;26405;-78
2021/10/29 00:34:20;;;;;;;91.10;52.85;;;;;;;7.34;85.37;101327.15;1703056;82;25800;-78
2021/10/29 00:36:47;;;;;;;88.22;53.00;;;;;;;7.32;85.38;101325.13;1702123;81;27463;-78
2021/10/29 00:39:15;;;;;;;90.70;54.83;;;;;;;7.31;85.53;101316.80;1690527;81;26693;-77
2021/10/29 00:41:43;;;;;;;94.58;54.05;;;;;;;7.30;85.54;101318.63;1725870;82;25882;-78
2021/10/29 00:44:10;;;;;;;95.55;53.28;;;;;;;7.26;85.67;101313.73;1677483;81;25886;-78
2021/10/29 00:46:37;;;;;;;94.37;52.25;;;;;;;7.24;85.79;101310.38;1692332;81;25835;-78
2021/10/29 00:49:04;;;;;;;89.22;53.98;;;;;;;7.23;85.85;101310.86;1694731;81;27314;-78
2021/10/29 00:51:31;;;;;;;91.22;54.63;;;;;;;7.23;85.73;101312.72;1745357;80;25776;-78
2021/10/29 00:53:58;;;;;;;88.30;52.58;;;;;;;7.24;85.67;101305.90;1703707;82;26174;-78
2021/10/29 00:56:26;;;;;;;94.05;54.08;;;;;;;7.24;85.67;101304.56;1717531;82;26546;-78
2021/10/29 00:58:54;;;;;;;93.07;54.42;;;;;;;7.24;85.60;101307.23;1697478;81;25812;-78
2021/10/29 01:01:21;;;;;;;91.28;52.67;;;;;;;7.24;85.68;101305.90;1743899;81;28191;-78
2021/10/29 01:03:48;;;;;;;87.88;53.38;;;;;;;7.24;85.65;101302.39;1686456;82;25976;-78
2021/10/29 01:06:15;;;;;;;94.60;55.78;;;;;;;7.23;85.64;101297.55;1694016;81;25784;-78
2021/10/29 01:08:42;;;;;;;89.07;52.03;;;;;;;7.19;85.60;101293.98;1697020;81;25908;-78
2021/10/29 01:11:15;;;;;;;101.22;56.95;;;;;;;7.18;85.67;101284.33;1713904;81;26497;-80
2021/10/29 01:13:47;;;;;;;96.87;55.75;;;;;;;7.17;85.75;101286.16;1721362;81;28248;-78
2021/10/29 01:16:16;;;;;;;91.72;53.98;;;;;;;7.15;85.98;101281.95;1698429;81;25994;-78
2021/10/29 01:18:43;;;;;;;95.67;52.83;;;;;;;7.11;85.91;101278.76;1712071;82;25795;-78
2021/10/29 01:21:10;;;;;;;92.95;54.30;;;;;;;7.11;85.96;101277.91;1747908;81;26444;-78
2021/10/29 01:23:38;;;;;;;102.05;54.10;;;;;;;7.09;86.06;101274.08;1703973;82;25782;-78
2021/10/29 01:26:13;;;;;;;92.67;54.42;;;;;;;7.08;86.24;101273.71;1728135;81;27563;-78
2021/10/29 01:28:41;;;;;;;94.85;54.35;;;;;;;7.07;86.23;101268.55;1688200;81;26536;-78
2021/10/29 01:31:08;;;;;;;87.20;51.83;;;;;;;7.07;86.25;101270.72;1680453;82;25799;-78
2021/10/29 01:33:36;;;;;;;96.17;53.23;;;;;;;7.05;86.18;101262.04;1721081;81;25929;-78
2021/10/29 01:36:03;;;;;;;88.47;52.93;;;;;;;7.05;86.18;101271.36;1723765;81;26518;-78
2021/10/29 01:38:40;;;;;;;93.62;53.87;;;;;;;7.03;86.18;101258.69;1702878;81;27434;-78
2021/10/29 01:41:09;;;;;;;95.95;55.52;;;;;;;7.02;86.24;101259.66;1747443;81;25805;-78
2021/10/29 01:43:47;;;;;;;89.25;53.75;;;;;;;7.01;86.35;101262.80;1703597;81;25874;-78
2021/10/29 01:46:14;;;;;;;90.53;51.73;;;;;;;7.00;86.39;101256.30;1700172;82;25883;-78
2021/10/29 01:48:51;;;;;;;90.80;51.48;;;;;;;6.98;86.42;101249.80;1721230;81;26094;-79
2021/10/29 01:51:19;;;;;;;94.15;53.40;;;;;;;6.95;86.28;101242.58;1748229;81;27505;-78
2021/10/29 01:53:46;;;;;;;89.17;51.40;;;;;;;6.93;86.37;101238.74;1728469;81;26662;-78
2021/10/29 01:56:13;;;;;;;86.95;50.17;;;;;;;6.93;86.44;101240.56;1679904;81;25893;-78
2021/10/29 01:58:40;;;;;;;84.75;51.68;;;;;;;6.93;86.33;101237.90;1718301;81;26362;-78
2021/10/29 02:01:07;;;;;;;89.62;51.05;;;;;;;6.89;86.26;101235.19;1718621;81;25876;-78
2021/10/29 02:03:34;;;;;;;85.70;49.90;;;;;;;6.88;86.42;101229.05;1684794;82;27518;-79
2021/10/29 02:06:02;;;;;;;86.42;50.67;;;;;;;6.84;86.40;101231.63;1664375;82;25915;-78
2021/10/29 02:08:30;;;;;;;83.65;51.13;;;;;;;6.84;86.41;101228.16;1680259;82;25681;-78
2021/10/29 02:10:57;;;;;;;80.85;50.65;;;;;;;6.84;86.54;101228.16;1734053;82;26560;-78
2021/10/29 02:13:24;;;;;;;84.28;49.35;;;;;;;6.81;86.54;101226.62;1688131;82;25942;-78
2021/10/29 02:15:51;;;;;;;79.10;50.00;;;;;;;6.77;86.44;101217.25;1711112;82;28243;-78
2021/10/29 02:18:18;;;;;;;83.33;49.03;;;;;;;6.75;86.59;101229.03;1731446;82;25899;-78
2021/10/29 02:20:46;;;;;;;88.90;51.08;;;;;;;6.72;86.56;101222.66;1674887;82;26451;-78
2021/10/29 02:23:14;;;;;;;86.37;50.95;;;;;;;6.68;86.58;101222.60;1696672;82;25879;-77
2021/10/29 02:25:46;;;;;;;84.13;50.35;;;;;;;6.66;86.67;101217.92;1721324;81;26196;-78
2021/10/29 02:28:16;;;;;;;84.20;49.75;;;;;;;6.61;86.68;101218.36;1747454;81;28145;-78
2021/10/29 02:30:44;;;;;;;91.63;49.98;;;;;;;6.61;86.78;101214.84;1697863;81;25851;-78
2021/10/29 02:33:12;;;;;;;85.75;51.92;;;;;;;6.56;86.81;101216.64;1697867;83;26610;-78
2021/10/29 02:35:39;;;;;;;82.40;49.58;;;;;;;6.56;87.03;101213.14;1712443;82;26451;-78
2021/10/29 02:38:06;;;;;;;90.17;50.95;;;;;;;6.53;86.93;101211.60;1777437;80;25374;-78
2021/10/29 02:40:34;;;;;;;84.47;51.02;;;;;;;6.55;86.95;101218.95;1728414;80;28051;-78
2021/10/29 02:43:01;;;;;;;78.37;48.45;;;;;;;6.55;86.93;101223.42;1704768;81;25785;-77
2021/10/29 02:45:29;;;;;;;85.77;50.58;;;;;;;6.53;86.85;101225.39;1754680;81;25760;-78
2021/10/29 02:47:56;;;;;;;89.62;52.70;;;;;;;6.53;86.87;101232.05;1743559;81;25889;-78
2021/10/29 02:50:24;;;;;;;81.67;49.93;;;;;;;6.52;86.73;101227.72;1699218;81;25877;-78
2021/10/29 02:52:52;;;;;;;83.05;50.05;;;;;;;6.50;86.60;101223.05;1726595;81;27622;-78
2021/10/29 02:55:19;;;;;;;83.70;49.93;;;;;;;6.48;86.48;101226.34;1728317;82;25812;-78
2021/10/29 02:57:46;;;;;;;83.75;47.70;;;;;;;6.45;86.39;101227.47;1743281;81;26600;-78
2021/10/29 03:00:17;;;;;;;79.07;46.45;;;;;;;6.44;86.40;101224.92;1681609;81;26405;-79
2021/10/29 03:02:45;;;;;;;78.83;47.75;;;;;;;6.45;86.22;101226.62;1706092;81;25928;-77
2021/10/29 03:05:13;;;;;;;76.92;46.75;;;;;;;6.43;86.15;101226.77;1697219;81;28200;-78
2021/10/29 03:07:41;;;;;;;79.60;48.00;;;;;;;6.45;86.05;101226.62;1730938;82;25917;-79
2021/10/29 03:10:11;;;;;;;75.08;46.83;;;;;;;6.42;85.93;101229.07;1667148;82;25845;-77
2021/10/29 03:12:39;;;;;;;78.95;46.45;;;;;;;6.42;85.81;101225.56;1789308;79;26003;-78
2021/10/29 03:15:09;;;;;;;78.60;47.90;;;;;;;6.41;85.69;101228.74;1731316;81;25359;-78
2021/10/29 03:17:37;;;;;;;86.12;48.20;;;;;;;6.41;85.54;101226.56;1748167;81;27615;-78
2021/10/29 03:20:08;;;;;;;83.15;47.67;;;;;;;6.40;85.42;101220.88;1728597;81;25731;-78
2021/10/29 03:22:35;;;;;;;80.42;48.05;;;;;;;6.38;85.22;101220.19;1692899;82;25778;-78
2021/10/29 03:25:03;;;;;;;76.50;47.10;;;;;;;6.36;85.10;101218.16;1700054;82;26451;-78
2021/10/29 03:27:30;;;;;;;84.30;50.25;;;;;;;6.34;85.01;101217.47;1726616;82;25910;-78
2021/10/29 03:29:58;;;;;;;85.20;50.23;;;;;;;6.31;84.93;101213.79;1715588;80;27317;-78
2021/10/29 03:32:25;;;;;;;80.90;47.35;;;;;;;6.29;84.86;101215.76;1717407;80;25931;-78
2021/10/29 03:34:52;;;;;;;86.53;50.30;;;;;;;6.26;84.86;101211.55;1718198;81;25777;-77
2021/10/29 03:40:09;;;;;;;89.77;50.97;;;;;;;6.23;84.87;101208.69;1675969;81;25320;-78
2021/10/29 03:42:29;;;;;;;96.10;54.20;;;;;;;6.21;84.81;101211.14;1719898;81;27454;-77
2021/10/29 03:45:02;;;;;;;95.42;53.28;;;;;;;6.20;84.95;101204.97;1744709;81;25714;-78
2021/10/29 03:47:19;;;;;;;100.07;57.15;;;;;;;6.20;84.91;101204.97;1737004;81;25885;-79
2021/10/29 03:49:53;;;;;;;103.70;60.65;;;;;;;6.18;84.88;101205.61;1674767;81;25945;-78
2021/10/29 03:54:53;;;;;;;104.27;59.20;;;;;;;6.16;84.87;101192.09;1736455;81;28282;-78
2021/10/29 03:57:26;;;;;;;120.30;63.30;;;;;;;6.14;84.98;101198.91;1716166;82;26505;-78
2021/10/29 03:59:54;;;;;;;125.75;64.40;;;;;;;6.14;85.01;101196.73;1670970;82;26467;-78
2021/10/29 04:02:23;;;;;;;119.13;63.02;;;;;;;6.11;84.96;101199.20;1715855;81;25928;-78
2021/10/29 04:04:51;;;;;;;122.25;64.37;;;;;;;6.10;84.86;101196.19;1710693;82;25822;-78
2021/10/29 04:07:18;;;;;;;112.62;60.48;;;;;;;6.09;84.84;101193.16;1748979;81;27340;-78
2021/10/29 04:09:45;;;;;;;109.87;62.95;;;;;;;6.08;84.86;101193.31;1695897;81;25886;-78
2021/10/29 04:12:14;;;;;;;115.30;61.05;;;;;;;6.08;84.98;101189.33;1722655;82;25819;-78
2021/10/29 04:14:43;;;;;;;109.30;58.05;;;;;;;6.04;84.95;101187.45;1727686;81;26540;-78
2021/10/29 04:17:11;;;;;;;106.20;58.08;;;;;;;6.00;85.07;101187.40;1749082;81;25836;-78
2021/10/29 04:19:38;;;;;;;105.85;56.35;;;;;;;5.99;85.01;101188.85;1703181;82;28174;-78
2021/10/29 04:22:05;;;;;;;98.62;59.03;;;;;;;5.98;85.01;101185.86;1699553;81;25763;-78
2021/10/29 04:24:32;;;;;;;100.75;59.20;;;;;;;5.97;85.01;101190.33;1727519;81;25811;-78
2021/10/29 04:27:01;;;;;;;103.25;61.13;;;;;;;5.96;84.86;101189.16;1723635;82;25922;-81
2021/10/29 04:29:35;;;;;;;104.15;58.98;;;;;;;5.94;84.79;101186.64;1674869;82;25827;-80
2021/10/29 04:31:57;;;;;;;89.92;56.02;;;;;;;5.93;84.84;101185.44;1682282;82;27465;-81
2021/10/29 04:34:26;;;;;;;100.78;57.60;;;;;;;5.91;84.92;101187.41;1727971;82;26003;-81
2021/10/29 04:36:57;;;;;;;107.25;59.85;;;;;;;5.92;84.95;101186.44;1729908;82;25827;-81
2021/10/29 04:39:25;;;;;;;103.12;59.00;;;;;;;5.89;84.98;101180.91;1688261;81;25702;-80
2021/10/29 04:41:53;;;;;;;104.12;58.17;;;;;;;5.89;84.93;101179.58;1681314;82;25299;-81
2021/10/29 04:44:21;;;;;;;94.65;56.55;;;;;;;5.88;84.83;101181.06;1716401;82;27554;-81
2021/10/29 04:46:50;;;;;;;93.42;55.17;;;;;;;5.85;84.86;101178.67;1727948;82;26659;-81
2021/10/29 04:49:17;;;;;;;100.12;54.15;;;;;;;5.84;84.85;101176.98;1704460;82;25875;-80
2021/10/29 04:51:45;;;;;;;98.65;55.15;;;;;;;5.84;84.78;101171.66;1679058;83;26024;-81
2021/10/29 04:54:12;;;;;;;91.80;53.68;;;;;;;5.80;84.83;101176.41;1709302;82;26096;-81
2021/10/29 04:56:39;;;;;;;90.00;54.88;;;;;;;5.78;84.76;101180.18;1703208;83;27572;-82
2021/10/29 04:59:06;;;;;;;94.83;55.73;;;;;;;5.76;84.81;101181.66;1657733;82;25935;-80
2021/10/29 05:01:34;;;;;;;99.70;55.30;;;;;;;5.74;84.86;101176.97;1679555;83;25833;-78
2021/10/29 05:04:01;;;;;;;99.15;55.98;;;;;;;5.74;84.79;101177.45;1683255;82;26107;-78
2021/10/29 05:06:28;;;;;;;106.05;56.92;;;;;;;5.73;84.58;101177.94;1723482;83;25855;-78
2021/10/29 05:08:55;;;;;;;104.87;57.30;;;;;;;5.71;84.53;101175.92;1658938;82;27014;-78
2021/10/29 05:11:23;;;;;;;104.97;60.25;;;;;;;5.71;84.45;101175.10;1705244;82;25778;-78
2021/10/29 05:13:50;;;;;;;119.20;65.25;;;;;;;5.68;84.38;101176.22;1711601;82;25869;-78
2021/10/29 05:16:17;;;;;;;101.67;59.18;;;;;;;5.66;84.38;101175.52;1727963;82;26570;-79
2021/10/29 05:18:44;;;;;;;101.33;59.38;;;;;;;5.66;84.34;101174.67;1688220;82;25340;-77
2021/10/29 05:21:11;;;;;;;96.10;56.30;;;;;;;5.64;84.33;101173.98;1682574;81;27571;-78
2021/10/29 05:23:38;;;;;;;95.65;55.67;;;;;;;5.62;84.26;101171.95;1711105;82;26461;-78
2021/10/29 05:26:05;;;;;;;102.15;57.80;;;;;;;5.60;84.25;101166.79;1729715;82;25304;-78
2021/10/29 05:28:32;;;;;;;90.60;55.03;;;;;;;5.59;84.24;101169.56;1656574;83;25789;-78
2021/10/29 05:30:59;;;;;;;90.67;54.18;;;;;;;5.56;84.22;101173.34;1698031;81;25983;-79
2021/10/29 05:33:26;;;;;;;95.55;55.25;;;;;;;5.52;84.02;101178.59;1752466;81;27186;-78
2021/10/29 05:35:54;;;;;;;92.60;54.55;;;;;;;5.51;84.08;101172.09;1743579;81;26198;-78
2021/10/29 05:38:22;;;;;;;93.95;54.77;;;;;;;5.49;84.13;101170.41;1679143;81;26106;-78
2021/10/29 05:40:49;;;;;;;83.80;51.95;;;;;;;5.48;84.04;101166.56;1704075;81;26625;-78
2021/10/29 05:43:17;;;;;;;90.60;52.60;;;;;;;5.45;84.00;101164.20;1729994;81;25770;-78
2021/10/29 05:45:44;;;;;;;91.97;55.15;;;;;;;5.45;84.12;101176.98;1729108;81;27680;-78
2021/10/29 05:48:11;;;;;;;95.10;53.92;;;;;;;5.45;84.14;101170.33;1725774;81;25919;-78
2021/10/29 05:50:46;;;;;;;89.10;53.83;;;;;;;5.44;84.12;101171.33;1703055;81;26143;-78
2021/10/29 05:53:08;;;;;;;92.05;56.13;;;;;;;5.43;84.10;101172.81;1715173;81;26198;-78
2021/10/29 05:55:35;;;;;;;92.47;55.50;;;;;;;5.43;84.20;101180.78;1692157;81;25842;-78
2021/10/29 05:58:02;;;;;;;92.00;54.50;;;;;;;5.41;84.06;101172.92;1673567;83;27579;-79
2021/10/29 06:00:31;;;;;;;104.17;57.15;;;;;;;5.40;84.19;101171.27;1707703;81;26552;-77
2021/10/29 06:03:06;;;;;;;104.47;58.58;;;;;;;5.41;84.21;101174.73;1749073;81;25804;-78
2021/10/29 06:05:33;;;;;;;105.03;60.48;;;;;;;5.41;84.31;101178.23;1721232;80;25794;-78
2021/10/29 06:08:00;;;;;;;103.78;61.58;;;;;;;5.43;84.35;101180.78;1705096;81;25884;-78
2021/10/29 06:10:28;;;;;;;100.07;59.13;;;;;;;5.42;84.43;101179.94;1708355;81;28140;-79
2021/10/29 06:12:55;;;;;;;97.15;57.10;;;;;;;5.44;84.43;101187.27;1750081;81;25693;-78
2021/10/29 06:15:23;;;;;;;98.97;58.90;;;;;;;5.45;84.55;101179.63;1707234;82;25788;-78
2021/10/29 06:17:51;;;;;;;95.38;57.67;;;;;;;5.48;84.77;101185.16;1732275;81;25815;-79
2021/10/29 06:20:20;;;;;;;93.60;58.20;;;;;;;5.50;84.79;101188.52;1727376;81;25707;-78
2021/10/29 06:22:54;;;;;;;101.90;57.33;;;;;;;5.51;84.91;101188.88;1745002;81;27623;-78
2021/10/29 06:25:26;;;;;;;88.78;53.55;;;;;;;5.52;85.06;101189.22;1742467;80;25913;-78
2021/10/29 06:28:13;;;;;;;90.87;53.92;;;;;;;5.55;85.08;101186.77;1698547;83;25766;-78
2021/10/29 06:30:44;;;;;;;93.80;54.85;;;;;;;5.58;85.22;101189.98;1728899;81;25586;-78
2021/10/29 06:33:19;;;;;;;93.30;53.38;;;;;;;5.57;85.37;101186.14;1756203;81;25496;-77
2021/10/29 06:35:47;;;;;;;96.37;54.35;;;;;;;5.55;85.55;101188.10;1672151;82;28135;-78
2021/10/29 06:38:15;;;;;;;86.20;53.15;;;;;;;5.55;85.66;101190.28;1704294;81;25980;-78
2021/10/29 06:40:45;;;;;;;93.72;55.75;;;;;;;5.59;85.76;101194.81;1695653;81;25763;-77
2021/10/29 06:43:28;;;;;;;89.67;53.67;;;;;;;5.62;85.94;101195.39;1747391;80;25844;-78
2021/10/29 06:46:11;;;;;;;89.95;55.23;;;;;;;5.64;86.00;101186.78;1707412;81;25835;-78
2021/10/29 06:59:40;;;;;;;93.37;54.60;;;;;;;5.79;86.62;101183.20;1714888;81;25754;-78
2021/10/29 07:05:04;;;;;;;93.42;56.30;;;;;;;6.01;86.18;101187.73;1729366;82;26515;-78
2021/10/29 07:39:56;;;;;;;92.08;56.80;;;;;;;6.04;87.08;101194.11;1683686;82;25917;-78
2021/10/29 07:40:10;;;;;;;85.28;50.28;;;;;;;6.60;88.62;101204.72;1773558;80;26198;-78
2021/10/29 07:43:01;;;;;;;82.88;50.98;;;;;;;6.66;88.47;101201.95;1697847;80;27539;-78
2021/10/29 07:45:13;;;;;;;80.55;48.02;;;;;;;6.74;88.59;101202.05;1745417;80;25852;-78
2021/10/29 07:47:40;;;;;;;82.97;52.45;;;;;;;6.79;88.59;101197.97;1772585;80;25727;-79
2021/10/29 07:50:11;;;;;;;86.30;51.18;;;;;;;6.88;88.66;101200.23;1775425;80;26423;-78
2021/10/29 07:52:39;;;;;;;85.65;50.48;;;;;;;6.95;88.61;101202.63;1672103;81;25871;-78
2021/10/29 07:55:10;;;;;;;78.65;48.92;;;;;;;7.01;88.66;101198.88;1698690;81;28211;-78
2021/10/29 07:57:39;;;;;;;83.10;48.80;;;;;;;7.10;88.67;101206.98;1749050;81;26081;-78
2021/10/29 08:00:09;;;;;;;77.03;47.98;;;;;;;7.17;88.66;101199.56;1742855;80;25592;-78
2021/10/29 08:02:36;;;;;;;80.77;48.10;;;;;;;7.26;88.69;101203.16;1720677;81;26395;-79
2021/10/29 08:05:05;;;;;;;70.85;45.85;;;;;;;7.35;88.72;101206.25;1700849;81;25789;-78
2021/10/29 08:07:32;;;;;;;84.15;49.33;;;;;;;7.42;88.51;101199.34;1712004;81;27482;-78
2021/10/29 08:10:04;;;;;;;81.60;47.43;;;;;;;7.51;88.46;101199.73;1749325;81;26594;-79
2021/10/29 08:12:35;;;;;;;66.80;43.95;;;;;;;7.61;88.33;101204.52;1704663;81;26528;-78
2021/10/29 08:15:05;;;;;;;77.70;49.30;;;;;;;7.70;88.35;101204.91;1678160;81;25837;-78
2021/10/29 08:17:33;;;;;;;77.08;46.65;;;;;;;7.78;88.41;101195.14;1745117;81;25805;-78
2021/10/29 08:20:01;;;;;;;74.80;45.80;;;;;;;7.88;88.17;101200.41;1748560;81;27448;-78
2021/10/29 08:22:28;;;;;;;69.30;44.53;;;;;;;7.97;88.04;101194.15;1700880;81;25757;-78
2021/10/29 08:24:55;;;;;;;71.55;45.52;;;;;;;8.07;88.02;101204.22;1678238;81;25893;-78
2021/10/29 08:27:24;;;;;;;75.72;46.02;;;;;;;8.15;87.89;101200.27;1749737;81;25823;-78
2021/10/29 08:29:51;;;;;;;72.10;47.78;;;;;;;8.25;87.72;101202.39;1716351;81;25897;-79
2021/10/29 08:32:18;;;;;;;70.67;46.28;;;;;;;8.35;87.40;101207.60;1669901;82;27574;-79
2021/10/29 08:34:45;;;;;;;76.47;48.98;;;;;;;8.44;87.25;101203.99;1697114;81;26436;-77
2021/10/29 08:37:13;;;;;;;72.00;45.88;;;;;;;8.52;87.03;101202.70;1718360;81;25456;-78
2021/10/29 08:39:41;;;;;;;70.03;43.90;;;;;;;8.59;86.96;101203.74;1734273;82;25879;-79
2021/10/29 08:42:10;;;;;;;68.92;41.45;;;;;;;8.68;86.75;101205.95;1658576;82;26026;-79
2021/10/29 08:44:37;;;;;;;68.02;45.98;;;;;;;8.76;86.70;101203.31;1670558;81;28461;-78
2021/10/29 08:47:05;;;;;;;70.12;43.38;;;;;;;8.84;86.77;101204.19;1720973;82;26546;-78
2021/10/29 08:49:34;;;;;;;66.33;43.92;;;;;;;8.94;86.52;101205.41;1702988;82;25815;-78
2021/10/29 08:52:04;;;;;;;69.27;43.23;;;;;;;9.01;86.32;101203.25;1679852;81;26489;-79
2021/10/29 08:54:32;;;;;;;67.05;40.23;;;;;;;9.11;86.31;101198.59;1694948;81;25915;-79
2021/10/29 08:57:00;;;;;;;60.15;41.70;;;;;;;9.19;86.16;101200.47;1728348;82;27568;-79
2021/10/29 08:59:31;;;;;;;69.40;42.25;;;;;;;9.28;85.99;101198.97;1721659;81;26294;-78
2021/10/29 09:02:18;;;;;;;68.90;42.60;;;;;;;9.36;85.77;101202.19;1679037;82;25894;-78
2021/10/29 09:04:51;;;;;;;69.00;41.45;;;;;;;9.44;85.53;101196.00;1709938;81;25816;-79
2021/10/29 09:32:59;;;;;;;62.33;38.08;;;;;;;10.32;83.02;101189.83;1716524;81;26267;-78
2021/10/29 09:35:28;;;;;;;56.92;37.33;;;;;;;10.39;82.32;101190.82;1717203;81;25735;-79
2021/10/29 09:38:03;;;;;;;58.00;38.55;;;;;;;10.46;82.22;101188.61;1740753;81;27311;-78
2021/10/29 09:41:02;;;;;;;58.83;37.08;;;;;;;10.54;82.07;101189.11;1702650;82;26518;-80
2021/10/29 09:43:34;;;;;;;58.05;37.33;;;;;;;10.64;82.48;101191.92;1703769;81;25841;-79
2021/10/29 09:46:03;;;;;;;55.23;35.52;;;;;;;10.73;81.97;101186.84;1690421;81;26594;-80
2021/10/29 09:48:45;;;;;;;61.53;38.13;;;;;;;10.83;82.00;101188.83;1721872;82;26593;-80
2021/10/29 09:51:12;;;;;;;52.30;35.43;;;;;;;10.95;82.17;101189.79;1701276;82;27478;-79
2021/10/29 09:53:48;;;;;;;50.80;34.18;;;;;;;11.04;81.79;101183.36;1654510;82;26560;-80
2021/10/29 09:58:53;;;;;;;55.92;36.35;;;;;;;11.24;81.49;101180.08;1747651;81;26160;-80
2021/10/29 10:01:26;;;;;;;52.90;35.75;;;;;;;11.32;80.81;101186.72;1700222;81;25333;-79
2021/10/29 10:03:53;;;;;;;54.33;34.80;;;;;;;11.41;80.43;101187.50;1720478;81;27460;-80
2021/10/29 10:06:24;;;;;;;54.23;36.00;;;;;;;11.46;80.22;101186.48;1717302;81;25869;-80
2021/10/29 10:08:54;;;;;;;52.65;33.58;;;;;;;11.52;80.10;101184.41;1749567;81;25887;-80
2021/10/29 10:11:24;;;;;;;57.98;35.30;;;;;;;11.54;79.52;101173.84;1723014;81;25771;-79
2021/10/29 10:13:54;;;;;;;48.30;33.85;;;;;;;11.60;79.09;101173.12;1678083;81;25782;-80
2021/10/29 10:16:23;;;;;;;55.20;35.45;;;;;;;11.67;78.98;101172.42;1717631;81;28320;-79
2021/10/29 10:18:51;;;;;;;50.90;34.83;;;;;;;11.73;78.38;101162.31;1749095;81;26275;-79
2021/10/29 10:21:21;;;;;;;45.00;31.82;;;;;;;11.79;78.06;101166.95;1721812;81;25347;-80
2021/10/29 10:23:52;;;;;;;52.65;32.03;;;;;;;11.85;78.23;101165.72;1693828;82;26598;-79
2021/10/29 10:26:45;;;;;;;44.75;30.50;;;;;;;11.92;78.27;101162.64;1744643;81;25962;-79
2021/10/29 10:48:38;;;;;;;40.67;25.50;;;;;;;12.40;74.65;101140.65;1743870;81;25901;-79
2021/10/29 10:57:42;;;;;;;37.85;24.43;;;;;;;12.61;74.34;101135.05;1715173;81;28156;-80
2021/10/29 11:11:03;;;;;;;33.23;21.55;;;;;;;12.99;71.45;101119.08;1746005;81;28330;-79
2021/10/29 11:13:47;;;;;;;33.38;22.52;;;;;;;13.03;71.67;101114.48;1720523;82;26010;-80
2021/10/29 11:16:39;;;;;;;32.45;21.73;;;;;;;13.07;71.59;101113.09;1714431;81;25911;-79
2021/10/29 11:19:16;;;;;;;35.15;23.55;;;;;;;13.12;70.71;101112.53;1707990;81;26659;-79
2021/10/29 11:21:54;;;;;;;37.55;23.05;;;;;;;13.20;71.03;101107.53;1720258;82;25785;-79
2021/10/29 11:24:40;;;;;;;38.80;25.25;;;;;;;13.25;70.98;101110.48;1747795;81;27462;-79
2021/10/29 11:27:18;;;;;;;32.10;21.42;;;;;;;13.31;70.65;101101.64;1699246;81;26614;-79
2021/10/29 11:29:52;;;;;;;30.97;22.55;;;;;;;13.37;70.12;101103.05;1701631;81;25337;-79
2021/10/29 11:32:21;;;;;;;37.90;24.77;;;;;;;13.43;70.33;101088.02;1748059;80;26468;-79
2021/10/29 11:35:02;;;;;;;36.83;24.27;;;;;;;13.48;70.37;101093.63;1737673;81;25909;-79
2021/10/29 11:37:36;;;;;;;35.08;23.85;;;;;;;13.54;69.93;101089.66;1693753;81;29375;-79
2021/10/29 11:40:03;;;;;;;30.25;22.45;;;;;;;13.60;69.82;101086.72;1727700;81;25868;-80
2021/10/29 11:42:30;;;;;;;32.83;22.73;;;;;;;13.64;69.58;101081.26;1735644;81;25941;-79
2021/10/29 11:44:58;;;;;;;33.67;21.70;;;;;;;13.72;69.15;101075.22;1746173;81;25866;-79
2021/10/29 11:47:27;;;;;;;35.05;23.10;;;;;;;13.79;67.50;101067.19;1700707;81;25331;-79
2021/10/29 11:49:54;;;;;;;37.28;25.02;;;;;;;13.85;67.99;101067.23;1689473;81;27487;-79
2021/10/29 11:52:22;;;;;;;37.70;23.90;;;;;;;13.89;68.17;101063.13;1701882;81;25874;-80
2021/10/29 11:54:51;;;;;;;35.05;23.62;;;;;;;13.96;68.33;101059.64;1713155;81;25867;-79
2021/10/29 11:57:34;;;;;;;34.75;22.67;;;;;;;14.00;67.40;101060.91;1690652;82;25816;-79
2021/10/29 12:00:12;;;;;;;32.00;21.37;;;;;;;14.05;67.12;101059.27;1715949;81;25958;-79
2021/10/29 12:07:56;;;;;;;32.70;21.02;;;;;;;14.21;66.60;101050.03;1678426;83;25799;-79
2021/10/29 12:10:23;;;;;;;32.35;21.37;;;;;;;14.24;66.31;101049.11;1696697;81;26456;-79
2021/10/29 12:12:56;;;;;;;30.55;20.50;;;;;;;14.26;66.03;101048.43;1722885;81;25826;-79
2021/10/29 12:15:26;;;;;;;29.20;18.35;;;;;;;14.30;66.23;101044.84;1749091;81;27525;-79
2021/10/29 12:18:00;;;;;;;28.10;19.53;;;;;;;14.35;65.70;101048.58;1702475;82;26516;-79
2021/10/29 12:20:34;;;;;;;28.23;18.55;;;;;;;14.39;65.48;101040.95;1729985;82;25808;-79
2021/10/29 12:23:08;;;;;;;33.25;22.30;;;;;;;14.41;65.45;101042.39;1718450;81;25811;-80
2021/10/29 12:28:22;;;;;;;30.97;20.80;;;;;;;14.50;64.76;101037.14;1669097;82;27421;-80
2021/10/29 12:37:32;;;;;;;28.52;18.90;;;;;;;14.54;64.38;101031.66;1748200;81;25925;-80
2021/10/29 13:04:07;;;;;;;31.82;20.55;;;;;;;14.66;63.03;100997.70;1730814;81;25867;-80
2021/10/29 13:06:44;;;;;;;31.50;20.95;;;;;;;14.67;63.27;100995.81;1718560;82;26525;-80
2021/10/29 13:09:15;;;;;;;34.90;21.07;;;;;;;14.67;63.33;100993.95;1750215;81;27456;-80
2021/10/29 13:11:49;;;;;;;31.17;21.20;;;;;;;14.68;62.54;100991.59;1664279;81;26056;-80
2021/10/29 13:14:31;;;;;;;33.13;20.45;;;;;;;14.69;62.61;100991.89;1695629;81;25544;-80
2021/10/29 13:16:54;;;;;;;28.15;20.30;;;;;;;14.69;62.43;100986.50;1745618;80;25845;-80
2021/10/29 13:19:41;;;;;;;33.78;21.05;;;;;;;14.71;62.41;100987.66;1695247;81;25820;-80
2021/10/29 13:25:11;;;;;;;31.33;22.52;;;;;;;14.71;62.24;100993.56;1736465;81;26154;-80
2021/10/29 13:38:23;;;;;;;39.50;23.95;;;;;;;14.73;63.50;100988.80;1727810;81;25866;-80
2021/10/29 13:51:46;;;;;;;36.48;24.23;;;;;;;14.63;64.08;100995.41;1698932;81;26507;-80
2021/10/29 13:57:19;;;;;;;37.17;24.40;;;;;;;14.58;64.50;100993.82;1704188;81;25824;-79
2021/10/29 13:59:53;;;;;;;35.98;24.67;;;;;;;14.56;64.72;100992.39;1723091;81;26258;-80
2021/10/29 14:28:04;;;;;;;34.58;23.85;;;;;;;14.30;65.84;100986.91;1748934;81;26681;-80
2021/10/29 14:29:50;;;;;;;36.45;25.10;;;;;;;14.22;66.09;100983.81;1725468;81;27098;-79
2021/10/29 14:34:53;;;;;;;41.50;26.40;;;;;;;14.15;66.41;100974.06;1703629;81;25947;-80
2021/10/29 14:37:30;;;;;;;42.55;25.88;;;;;;;14.11;66.54;100983.06;1675111;83;25952;-80
2021/10/29 14:42:44;;;;;;;36.20;25.57;;;;;;;14.02;66.80;100983.42;1744003;81;26914;-80
2021/10/29 14:45:18;;;;;;;43.05;27.02;;;;;;;13.96;66.89;100985.57;1699412;81;26511;-79
2021/10/29 14:50:37;;;;;;;39.15;26.45;;;;;;;13.88;67.09;100987.89;1727295;81;25695;-79
2021/10/29 15:15:15;;;;;;;97.80;58.90;;;;;;;13.48;67.82;100977.41;1744341;81;25356;-80
2021/10/29 15:25:37;;;;;;;57.88;35.75;;;;;;;13.25;67.74;100975.98;1748766;81;25810;-81
2021/10/29 15:30:48;;;;;;;48.23;29.90;;;;;;;13.10;67.76;100968.00;1726468;81;25910;-80
2021/10/29 15:33:32;;;;;;;49.18;29.35;;;;;;;13.02;67.77;100972.14;1716978;81;26590;-80